createdAt,value
2022-08-10T00:01:11.059Z,1.00
2022-08-10T00:04:17.413Z,1.00
2022-08-10T00:07:23.224Z,0.93
2022-08-10T00:10:25.465Z,1.02
2022-08-10T00:13:27.106Z,0.80
2022-08-10T00:16:28.692Z,0.80
2022-08-10T00:19:34.854Z,1.23
2022-08-10T00:22:57.449Z,1.52
2022-08-10T00:26:00.413Z,1.20
2022-08-10T00:29:01.968Z,1.30
2022-08-10T00:32:03.954Z,1.30
2022-08-10T00:35:05.933Z,1.23
2022-08-10T00:38:07.549Z,1.25
2022-08-10T00:41:09.115Z,1.08
2022-08-10T00:44:10.684Z,1.35
2022-08-10T00:47:35.648Z,1.30
2022-08-10T00:50:35.743Z,1.23
2022-08-10T00:53:37.472Z,1.20
2022-08-10T00:57:15.610Z,1.25
2022-08-10T01:00:00.935Z,1.35
2022-08-10T01:03:02.662Z,1.15
2022-08-10T01:06:15.295Z,1.50
2022-08-10T01:09:22.736Z,1.50
2022-08-10T01:12:39.550Z,1.40
2022-08-10T01:15:42.649Z,1.27
2022-08-10T01:19:19.098Z,1.42
2022-08-10T01:22:38.129Z,1.30
2022-08-10T01:26:12.112Z,1.50
2022-08-10T01:29:33.249Z,1.50
2022-08-10T01:32:48.941Z,1.20
2022-08-10T01:35:55.599Z,1.55
2022-08-10T01:38:59.754Z,1.20
2022-08-10T01:42:03.103Z,1.08
2022-08-10T01:45:09.035Z,1.20
2022-08-10T01:48:31.435Z,1.00
2022-08-10T01:51:37.186Z,1.00
2022-08-10T01:54:41.437Z,1.02
2022-08-10T01:57:45.711Z,0.90
2022-08-10T02:00:50.386Z,1.50
2022-08-10T02:04:04.130Z,1.55
2022-08-10T02:07:13.075Z,1.70
2022-08-10T02:10:17.025Z,1.60
2022-08-10T02:13:20.395Z,2.00
2022-08-10T02:16:24.845Z,1.80
2022-08-10T02:19:28.089Z,1.90
2022-08-10T02:22:38.134Z,1.77
2022-08-10T02:25:43.841Z,2.10
2022-08-10T02:28:46.224Z,1.70
2022-08-10T02:31:49.640Z,1.90
2022-08-10T02:34:55.792Z,1.90
2022-08-10T02:38:04.834Z,1.70
2022-08-10T02:45:01.309Z,2.10
2022-08-10T02:45:29.047Z,2.03
2022-08-10T02:48:33.909Z,1.90
2022-08-10T02:52:06.354Z,1.80
2022-08-10T02:55:27.078Z,1.90
2022-08-10T02:58:41.023Z,1.90
2022-08-10T03:01:46.419Z,1.95
2022-08-10T03:04:55.035Z,1.80
2022-08-10T03:08:05.711Z,2.00
2022-08-10T03:11:09.448Z,2.00
2022-08-10T03:14:11.937Z,2.33
2022-08-10T03:17:15.805Z,2.20
2022-08-10T03:20:36.464Z,2.30
2022-08-10T03:23:43.315Z,2.70
2022-08-10T03:26:45.154Z,2.40
2022-08-10T03:30:29.800Z,2.22
2022-08-10T03:33:10.480Z,1.95
2022-08-10T03:36:41.864Z,2.10
2022-08-10T03:39:34.262Z,2.10
2022-08-10T03:42:38.320Z,2.03
2022-08-10T03:45:54.327Z,2.22
2022-08-10T03:49:00.869Z,2.05
2022-08-10T03:52:03.427Z,2.30
2022-08-10T03:55:05.686Z,2.03
2022-08-10T03:58:07.569Z,2.03
2022-08-10T04:01:10.105Z,2.30
2022-08-10T04:04:14.643Z,2.40
2022-08-10T04:07:19.282Z,2.30
2022-08-10T04:10:20.808Z,2.22
2022-08-10T04:13:22.874Z,2.40
2022-08-10T04:16:24.472Z,2.10
2022-08-10T04:19:27.271Z,2.50
2022-08-10T04:22:29.779Z,2.33
2022-08-10T04:25:31.635Z,2.28
2022-08-10T04:28:33.704Z,2.40
2022-08-10T04:31:36.894Z,2.20
2022-08-10T04:34:45.664Z,2.42
2022-08-10T04:37:49.405Z,2.50
2022-08-10T04:40:51.759Z,2.58
2022-08-10T04:43:53.390Z,2.20
2022-08-10T04:46:57.997Z,2.80
2022-08-10T04:50:00.193Z,2.45
2022-08-10T04:53:04.709Z,2.53
2022-08-10T04:56:08.527Z,2.50
2022-08-10T04:59:11.874Z,2.40
2022-08-10T05:02:29.501Z,2.20
2022-08-10T05:05:32.454Z,2.22
2022-08-10T05:08:34.033Z,2.17
2022-08-10T05:11:35.725Z,2.40
2022-08-10T05:14:37.289Z,2.45
2022-08-10T05:17:40.089Z,2.40
2022-08-10T05:20:41.672Z,2.70
2022-08-10T05:23:43.232Z,2.65
2022-08-10T05:27:00.228Z,2.80
2022-08-10T05:30:09.284Z,2.70
2022-08-10T05:33:10.906Z,2.30
2022-08-10T05:36:13.017Z,2.28
2022-08-10T05:39:15.797Z,2.40
2022-08-10T05:42:17.941Z,2.40
2022-08-10T05:45:21.874Z,2.45
2022-08-10T05:48:54.509Z,2.42
2022-08-10T05:51:45.143Z,2.60
2022-08-10T05:54:47.298Z,2.70
2022-08-10T05:57:49.056Z,2.67
2022-08-10T06:00:55.713Z,2.35
2022-08-10T06:03:59.339Z,2.50
2022-08-10T06:07:01.937Z,2.40
2022-08-10T06:10:04.024Z,2.80
2022-08-10T06:13:43.602Z,2.92
2022-08-10T06:16:54.162Z,3.00
2022-08-10T06:19:57.941Z,2.50
2022-08-10T06:23:04.325Z,2.70
2022-08-10T06:26:09.782Z,2.95
2022-08-10T06:29:18.600Z,2.75
2022-08-10T06:32:25.527Z,2.90
2022-08-10T06:35:30.383Z,2.70
2022-08-10T06:38:34.385Z,2.67
2022-08-10T06:41:59.803Z,2.50
2022-08-10T06:45:06.705Z,2.50
2022-08-10T06:48:29.850Z,2.92
2022-08-10T06:51:34.777Z,3.00
2022-08-10T06:54:37.811Z,2.92
2022-08-10T06:57:41.149Z,2.90
2022-08-10T07:00:44.130Z,2.50
2022-08-10T07:04:11.338Z,2.50
2022-08-10T07:07:25.822Z,2.60
2022-08-10T07:10:45.994Z,2.38
2022-08-10T07:14:14.102Z,2.50
2022-08-10T07:17:16.486Z,2.42
2022-08-10T07:20:20.110Z,2.70
2022-08-10T07:23:57.663Z,2.65
2022-08-10T07:26:50.389Z,2.30
2022-08-10T07:29:54.811Z,2.40
2022-08-10T07:32:56.976Z,2.25
2022-08-10T07:35:59.010Z,2.78
2022-08-10T07:39:02.623Z,2.60
2022-08-10T07:42:08.051Z,2.30
2022-08-10T07:45:10.012Z,2.65
2022-08-10T07:48:30.839Z,2.50
2022-08-10T07:51:33.142Z,2.50
2022-08-10T07:54:41.913Z,2.58
2022-08-10T07:57:46.593Z,2.97
2022-08-10T08:00:50.923Z,2.20
2022-08-10T08:04:11.124Z,2.47
2022-08-10T08:07:15.257Z,2.40
2022-08-10T08:10:24.873Z,2.45
2022-08-10T08:13:27.040Z,2.47
2022-08-10T08:16:31.141Z,2.30
2022-08-10T08:19:37.473Z,2.88
2022-08-10T08:24:10.071Z,2.58
2022-08-10T08:26:11.680Z,2.40
2022-08-10T08:29:18.876Z,2.40
2022-08-10T08:32:26.276Z,3.05
2022-08-10T08:35:28.616Z,2.97
2022-08-10T08:38:34.351Z,2.95
2022-08-10T08:41:50.424Z,2.78
2022-08-10T08:44:51.911Z,2.72
2022-08-10T08:48:12.494Z,2.90
2022-08-10T08:52:09.270Z,2.30
2022-08-10T08:56:03.720Z,2.53
2022-08-10T08:58:29.359Z,3.20
2022-08-10T09:01:41.635Z,2.90
2022-08-10T09:05:23.654Z,2.92
2022-08-10T09:08:55.682Z,3.10
2022-08-10T09:12:11.543Z,3.03
2022-08-10T09:15:40.842Z,3.30
2022-08-10T09:18:49.677Z,3.25
2022-08-10T09:22:25.289Z,3.20
2022-08-10T09:25:34.237Z,2.78
2022-08-10T09:28:40.384Z,3.40
2022-08-10T09:31:55.778Z,3.10
2022-08-10T09:36:20.093Z,3.13
2022-08-10T09:39:11.612Z,3.20
2022-08-10T09:43:14.139Z,2.95
2022-08-10T09:46:33.213Z,3.53
2022-08-10T09:50:04.424Z,3.60
2022-08-10T09:53:09.324Z,3.65
2022-08-10T09:56:32.378Z,3.17
2022-08-10T10:00:00.619Z,3.30
2022-08-10T10:03:26.763Z,2.92
2022-08-10T10:06:32.837Z,3.10
2022-08-10T10:09:48.784Z,2.90
2022-08-10T10:12:56.701Z,2.97
2022-08-10T10:16:12.895Z,3.40
2022-08-10T10:19:17.456Z,3.35
2022-08-10T10:22:37.672Z,2.72
2022-08-10T10:25:57.762Z,2.75
2022-08-10T10:29:58.280Z,2.75
2022-08-10T10:33:13.324Z,2.42
2022-08-10T10:36:17.284Z,2.70
2022-08-10T10:39:24.144Z,3.08
2022-08-10T10:42:45.740Z,2.92
2022-08-10T10:46:41.738Z,2.67
2022-08-10T10:50:15.125Z,2.72
2022-08-10T10:53:22.420Z,2.67
2022-08-10T10:56:50.881Z,2.63
2022-08-10T11:00:11.493Z,2.80
2022-08-10T11:03:48.113Z,2.70
2022-08-10T11:06:52.677Z,2.65
2022-08-10T11:10:05.077Z,3.05
2022-08-10T11:14:24.756Z,2.63
2022-08-10T11:17:21.558Z,2.50
2022-08-10T11:20:33.166Z,2.65
2022-08-10T11:24:48.663Z,2.25
2022-08-10T11:27:25.203Z,2.75
2022-08-10T11:30:54.960Z,2.40
2022-08-10T11:34:47.235Z,2.40
2022-08-10T11:38:29.989Z,2.40
2022-08-10T11:42:10.368Z,2.65
2022-08-10T11:45:20.011Z,2.40
2022-08-10T11:48:53.854Z,2.40
2022-08-10T11:52:00.000Z,2.40
2022-08-10T11:55:12.443Z,2.40
2022-08-10T11:58:33.804Z,2.10
2022-08-10T12:01:36.882Z,2.40
2022-08-10T12:04:41.798Z,2.25
2022-08-10T12:10:04.377Z,2.10
2022-08-10T12:11:23.890Z,2.45
2022-08-10T12:14:34.498Z,2.40
2022-08-10T12:17:42.643Z,2.40
2022-08-10T12:20:50.844Z,2.13
2022-08-10T12:24:11.497Z,2.20
2022-08-10T12:27:30.258Z,2.17
2022-08-10T12:30:36.058Z,2.40
2022-08-10T12:34:02.970Z,2.30
2022-08-10T12:37:14.756Z,2.20
2022-08-10T12:40:35.261Z,2.40
2022-08-10T12:44:07.338Z,2.10
2022-08-10T12:47:20.286Z,2.15
2022-08-10T12:50:39.196Z,2.30
2022-08-10T12:53:43.455Z,2.20
2022-08-10T12:57:16.069Z,1.95
2022-08-10T13:00:18.421Z,2.33
2022-08-10T13:04:22.815Z,2.22
2022-08-10T13:06:49.893Z,2.30
2022-08-10T13:09:55.699Z,2.20
2022-08-10T13:13:01.074Z,2.50
2022-08-10T13:16:03.869Z,2.33
2022-08-10T13:19:06.711Z,2.70
2022-08-10T13:22:09.793Z,1.98
2022-08-10T13:25:14.482Z,2.40
2022-08-10T13:28:37.690Z,2.22
2022-08-10T13:32:09.049Z,2.00
2022-08-10T13:35:14.178Z,2.65
2022-08-10T13:38:21.589Z,2.20
2022-08-10T13:41:32.633Z,2.22
2022-08-10T13:44:38.601Z,2.53
2022-08-10T13:47:48.512Z,2.10
2022-08-10T13:50:56.713Z,2.17
2022-08-10T13:54:00.291Z,2.00
2022-08-10T13:57:02.137Z,2.40
2022-08-10T14:00:37.464Z,2.05
2022-08-10T14:03:37.375Z,1.80
2022-08-10T14:06:41.004Z,1.90
2022-08-10T14:09:43.655Z,2.00
2022-08-10T14:12:47.673Z,1.80
2022-08-10T14:15:50.416Z,1.80
2022-08-10T14:18:55.039Z,2.05
2022-08-10T14:21:57.189Z,1.90
2022-08-10T14:25:13.550Z,1.60
2022-08-10T14:28:18.426Z,1.92
2022-08-10T14:31:24.796Z,2.28
2022-08-10T14:34:59.289Z,2.10
2022-08-10T14:37:59.664Z,2.30
2022-08-10T14:41:03.795Z,2.00
2022-08-10T14:44:12.224Z,2.20
2022-08-10T14:48:02.740Z,2.00
2022-08-10T14:50:55.630Z,1.90
2022-08-10T14:54:01.732Z,1.90
2022-08-10T14:57:11.426Z,1.80
2022-08-10T15:00:28.060Z,2.47
2022-08-10T15:04:01.548Z,2.08
2022-08-10T15:07:17.585Z,2.05
2022-08-10T15:10:23.903Z,1.98
2022-08-10T15:13:34.005Z,1.83
2022-08-10T15:16:37.519Z,1.95
2022-08-10T15:20:02.600Z,2.00
2022-08-10T15:23:29.826Z,1.85
2022-08-10T15:26:34.264Z,2.17
2022-08-10T15:29:36.819Z,2.00
2022-08-10T15:34:02.744Z,1.83
2022-08-10T15:37:36.353Z,1.73
2022-08-10T15:40:37.343Z,1.90
2022-08-10T15:43:54.799Z,2.00
2022-08-10T15:47:02.242Z,1.85
2022-08-10T15:50:15.978Z,1.73
2022-08-10T15:53:49.412Z,1.70
2022-08-10T15:56:56.684Z,1.70
2022-08-10T16:00:03.676Z,1.83
2022-08-10T16:03:17.288Z,1.80
2022-08-10T16:06:32.195Z,1.70
2022-08-10T16:10:22.361Z,2.00
2022-08-10T16:13:50.345Z,1.83
2022-08-10T16:16:36.804Z,1.75
2022-08-10T16:19:47.626Z,1.90
2022-08-10T16:22:50.972Z,1.80
2022-08-10T16:26:01.823Z,1.85
2022-08-10T16:29:12.018Z,1.75
2022-08-10T16:32:15.212Z,2.10
2022-08-10T16:35:19.987Z,1.88
2022-08-10T16:38:23.222Z,1.75
2022-08-10T16:42:03.276Z,1.83
2022-08-10T16:45:12.475Z,1.92
2022-08-10T16:48:16.507Z,1.83
2022-08-10T16:51:39.787Z,1.83
2022-08-10T16:54:42.851Z,1.90
2022-08-10T16:57:51.233Z,1.65
2022-08-10T17:01:02.035Z,1.95
2022-08-10T17:04:10.163Z,1.90
2022-08-10T17:07:16.019Z,1.80
2022-08-10T17:10:20.173Z,1.73
2022-08-10T17:13:27.603Z,1.77
2022-08-10T17:16:41.444Z,1.55
2022-08-10T17:19:47.296Z,1.90
2022-08-10T17:22:54.754Z,1.60
2022-08-10T17:26:00.667Z,1.80
2022-08-10T17:29:09.155Z,1.60
2022-08-10T17:32:44.295Z,1.75
2022-08-10T17:35:50.401Z,1.80
2022-08-10T17:38:53.458Z,1.75
2022-08-10T17:41:55.922Z,1.80
2022-08-10T17:44:58.729Z,2.10
2022-08-10T17:48:09.625Z,2.13
2022-08-10T17:51:13.925Z,1.90
2022-08-10T17:54:25.478Z,1.67
2022-08-10T17:57:28.104Z,1.80
2022-08-10T18:00:32.098Z,1.58
2022-08-10T18:03:39.801Z,1.77
2022-08-10T18:06:42.853Z,1.52
2022-08-10T18:09:49.744Z,1.60
2022-08-10T18:12:54.345Z,1.77
2022-08-10T18:15:57.068Z,1.90
2022-08-10T18:19:06.010Z,1.77
2022-08-10T18:22:11.310Z,2.05
2022-08-10T18:25:23.981Z,1.80
2022-08-10T18:28:26.622Z,1.80
2022-08-10T18:31:30.480Z,1.50
2022-08-10T18:34:33.451Z,1.85
2022-08-10T18:37:37.173Z,1.63
2022-08-10T18:40:43.401Z,1.95
2022-08-10T18:44:07.616Z,2.00
2022-08-10T18:47:17.745Z,1.80
2022-08-10T18:50:26.265Z,2.00
2022-08-10T18:53:35.694Z,1.90
2022-08-10T18:56:59.978Z,1.90
2022-08-10T19:00:09.325Z,1.70
2022-08-10T19:03:35.901Z,1.90
2022-08-10T19:07:15.698Z,1.75
2022-08-10T19:10:39.767Z,1.88
2022-08-10T19:14:18.071Z,1.60
2022-08-10T19:17:26.920Z,1.80
2022-08-10T19:20:57.905Z,1.77
2022-08-10T19:24:32.691Z,1.80
2022-08-10T19:28:10.297Z,1.58
2022-08-10T19:31:43.934Z,2.00
2022-08-10T19:34:58.328Z,2.25
2022-08-10T19:38:32.995Z,1.83
2022-08-10T19:41:44.745Z,1.80
2022-08-10T19:44:57.784Z,1.77
2022-08-10T19:48:26.358Z,1.85
2022-08-10T19:51:49.103Z,1.88
2022-08-10T19:55:17.580Z,1.70
2022-08-10T19:58:40.434Z,1.88
2022-08-10T20:01:55.792Z,1.80
2022-08-10T20:05:21.641Z,2.00
2022-08-10T20:08:52.768Z,1.90
2022-08-10T20:12:04.508Z,1.65
2022-08-10T20:15:11.552Z,1.95
2022-08-10T20:18:24.349Z,2.10
2022-08-10T20:21:28.347Z,1.88
2022-08-10T20:24:34.455Z,1.80
2022-08-10T20:27:58.155Z,1.73
2022-08-10T20:31:17.354Z,1.83
2022-08-10T20:34:26.877Z,1.88
2022-08-10T20:37:45.175Z,2.13
2022-08-10T20:41:02.226Z,2.53
2022-08-10T20:44:03.773Z,2.10
2022-08-10T20:47:19.599Z,2.35
2022-08-10T20:50:42.874Z,1.90
2022-08-10T20:53:49.390Z,2.10
2022-08-10T20:57:55.446Z,2.17
2022-08-10T21:00:56.230Z,2.05
2022-08-10T21:04:13.472Z,2.22
2022-08-10T21:07:50.595Z,2.17
2022-08-10T21:10:57.705Z,2.63
2022-08-10T21:14:11.827Z,2.70
2022-08-10T21:17:17.677Z,2.40
2022-08-10T21:20:36.416Z,2.35
2022-08-10T21:24:00.693Z,2.40
2022-08-10T21:27:22.508Z,2.20
2022-08-10T21:30:56.360Z,2.55
2022-08-10T21:34:10.100Z,2.20
2022-08-10T21:37:24.604Z,2.33
2022-08-10T21:40:35.829Z,2.10
2022-08-10T21:44:25.328Z,2.20
2022-08-10T21:48:06.606Z,2.15
2022-08-10T21:52:01.481Z,2.22
2022-08-10T21:55:57.081Z,1.80
2022-08-10T21:59:21.494Z,2.30
2022-08-10T22:02:50.172Z,1.95
2022-08-10T22:06:13.299Z,1.85
2022-08-10T22:09:42.762Z,2.10
2022-08-10T22:13:08.567Z,2.75
2022-08-10T22:16:45.882Z,2.60
2022-08-10T22:20:14.434Z,2.38
2022-08-10T22:24:21.549Z,2.58
2022-08-10T22:27:53.610Z,2.60
2022-08-10T22:31:32.710Z,2.55
2022-08-10T22:35:02.249Z,2.30
2022-08-10T22:38:56.791Z,2.05
2022-08-10T22:42:29.165Z,2.45
2022-08-10T22:46:13.663Z,2.28
2022-08-10T22:49:22.836Z,2.40
2022-08-10T22:52:28.726Z,2.35
2022-08-10T22:55:57.575Z,2.38
2022-08-10T22:58:59.275Z,2.35
2022-08-10T23:02:10.151Z,2.00
2022-08-10T23:05:16.782Z,2.50
2022-08-10T23:08:30.448Z,2.40
2022-08-10T23:11:39.144Z,2.33
2022-08-10T23:14:59.048Z,2.20
2022-08-10T23:18:25.233Z,2.28
2022-08-10T23:22:02.868Z,2.10
2022-08-10T23:25:01.461Z,2.10
2022-08-10T23:28:12.338Z,2.00
2022-08-10T23:31:17.502Z,2.25
2022-08-10T23:34:44.394Z,2.00
2022-08-10T23:37:47.019Z,2.28
2022-08-10T23:40:53.057Z,2.00
2022-08-10T23:44:04.111Z,2.03
2022-08-10T23:47:06.828Z,2.13
2022-08-10T23:50:11.704Z,2.30
2022-08-10T23:53:13.900Z,1.90
2022-08-10T23:56:19.862Z,2.17
2022-08-10T23:59:24.020Z,2.03
